sensor_id;sensor_type;location;lat;lon;timestamp;P1;durP1;ratioP1;P2;durP2;ratioP2
5163;SDS011;2601;50.224;10.126;2022-12-07T04:10:43;18.00;;;9.80;;
5163;SDS011;2601;50.224;10.126;2022-12-07T04:13:09;24.03;;;13.93;;
5163;SDS011;2601;50.224;10.126;2022-12-07T04:15:34;28.07;;;16.90;;
5163;SDS011;2601;50.224;10.126;2022-12-07T04:18:00;33.87;;;17.13;;
5163;SDS011;2601;50.224;10.126;2022-12-07T04:20:26;23.40;;;13.87;;
5163;SDS011;2601;50.224;10.126;2022-12-07T04:22:51;25.90;;;12.73;;
5163;SDS011;2601;50.224;10.126;2022-12-07T04:25:17;23.27;;;14.70;;
5163;SDS011;2601;50.224;10.126;2022-12-07T04:27:43;22.30;;;13.73;;
5163;SDS011;2601;50.224;10.126;2022-12-07T04:30:08;28.57;;;14.90;;
5163;SDS011;2601;50.224;10.126;2022-12-07T04:32:34;17.20;;;9.90;;
5163;SDS011;2601;50.224;10.126;2022-12-07T04:35:00;23.40;;;13.67;;
5163;SDS011;2601;50.224;10.126;2022-12-07T04:37:26;24.73;;;14.80;;
5163;SDS011;2601;50.224;10.126;2022-12-07T04:39:52;21.77;;;13.27;;
5163;SDS011;2601;50.224;10.126;2022-12-07T04:42:17;26.70;;;15.57;;
5163;SDS011;2601;50.224;10.126;2022-12-07T04:44:43;24.10;;;13.80;;
5163;SDS011;2601;50.224;10.126;2022-12-07T04:47:09;26.73;;;16.70;;
5163;SDS011;2601;50.224;10.126;2022-12-07T04:49:35;26.83;;;16.63;;
5163;SDS011;2601;50.224;10.126;2022-12-07T04:52:01;28.20;;;16.23;;
5163;SDS011;2601;50.224;10.126;2022-12-07T04:54:26;31.87;;;18.87;;
5163;SDS011;2601;50.224;10.126;2022-12-07T04:56:52;31.70;;;18.47;;
5163;SDS011;2601;50.224;10.126;2022-12-07T04:59:18;30.63;;;15.50;;
5163;SDS011;2601;50.224;10.126;2022-12-07T05:01:44;27.40;;;15.13;;
5163;SDS011;2601;50.224;10.126;2022-12-07T05:04:09;31.10;;;16.13;;
5163;SDS011;2601;50.224;10.126;2022-12-07T05:06:35;26.60;;;13.33;;
5163;SDS011;2601;50.224;10.126;2022-12-07T05:09:01;28.50;;;17.13;;
5163;SDS011;2601;50.224;10.126;2022-12-07T05:11:27;29.13;;;17.40;;
5163;SDS011;2601;50.224;10.126;2022-12-07T05:14:15;28.90;;;15.50;;
5163;SDS011;2601;50.224;10.126;2022-12-07T05:16:43;29.13;;;17.60;;
5163;SDS011;2601;50.224;10.126;2022-12-07T05:19:10;33.47;;;17.10;;
5163;SDS011;2601;50.224;10.126;2022-12-07T05:21:36;30.33;;;13.73;;
5163;SDS011;2601;50.224;10.126;2022-12-07T05:24:03;28.47;;;14.37;;
5163;SDS011;2601;50.224;10.126;2022-12-07T05:26:29;24.87;;;13.90;;
5163;SDS011;2601;50.224;10.126;2022-12-07T05:28:56;27.20;;;15.60;;
5163;SDS011;2601;50.224;10.126;2022-12-07T05:31:23;25.07;;;15.53;;
5163;SDS011;2601;50.224;10.126;2022-12-07T05:33:50;26.67;;;13.53;;
5163;SDS011;2601;50.224;10.126;2022-12-07T05:36:16;25.80;;;15.37;;
5163;SDS011;2601;50.224;10.126;2022-12-07T05:38:42;28.77;;;15.80;;
5163;SDS011;2601;50.224;10.126;2022-12-07T05:41:08;20.10;;;12.60;;
5163;SDS011;2601;50.224;10.126;2022-12-07T05:43:57;28.70;;;15.87;;
5163;SDS011;2601;50.224;10.126;2022-12-07T05:46:22;21.77;;;13.97;;
5163;SDS011;2601;50.224;10.126;2022-12-07T05:48:48;44.60;;;23.17;;
5163;SDS011;2601;50.224;10.126;2022-12-07T05:51:14;22.57;;;13.47;;
5163;SDS011;2601;50.224;10.126;2022-12-07T05:53:39;30.77;;;16.70;;
5163;SDS011;2601;50.224;10.126;2022-12-07T05:56:05;27.60;;;15.80;;
5163;SDS011;2601;50.224;10.126;2022-12-07T05:58:31;27.40;;;15.87;;
5163;SDS011;2601;50.224;10.126;2022-12-07T06:01:16;29.70;;;16.13;;
5163;SDS011;2601;50.224;10.126;2022-12-07T06:03:41;26.90;;;16.10;;
5163;SDS011;2601;50.224;10.126;2022-12-07T06:06:07;27.70;;;16.50;;
5163;SDS011;2601;50.224;10.126;2022-12-07T06:08:33;23.27;;;14.00;;
5163;SDS011;2601;50.224;10.126;2022-12-07T06:10:58;26.07;;;14.40;;
5163;SDS011;2601;50.224;10.126;2022-12-07T06:13:42;26.83;;;15.17;;
5163;SDS011;2601;50.224;10.126;2022-12-07T06:16:08;25.73;;;15.50;;
5163;SDS011;2601;50.224;10.126;2022-12-07T06:18:34;19.97;;;13.63;;
5163;SDS011;2601;50.224;10.126;2022-12-07T06:20:59;23.97;;;14.10;;
5163;SDS011;2601;50.224;10.126;2022-12-07T15:34:42;9.90;;;5.67;;
5163;SDS011;2601;50.224;10.126;2022-12-07T15:37:08;14.03;;;4.27;;
5163;SDS011;2601;50.224;10.126;2022-12-07T15:39:35;8.80;;;5.50;;
5163;SDS011;2601;50.224;10.126;2022-12-07T15:42:01;9.93;;;6.50;;
5163;SDS011;2601;50.224;10.126;2022-12-07T15:44:27;9.67;;;7.43;;
5163;SDS011;2601;50.224;10.126;2022-12-07T15:47:11;10.23;;;6.47;;
5163;SDS011;2601;50.224;10.126;2022-12-07T15:49:37;14.47;;;5.87;;
5163;SDS011;2601;50.224;10.126;2022-12-07T15:52:03;11.97;;;8.23;;
5163;SDS011;2601;50.224;10.126;2022-12-07T15:54:29;12.87;;;8.43;;
5163;SDS011;2601;50.224;10.126;2022-12-07T15:56:57;14.00;;;9.33;;
5163;SDS011;2601;50.224;10.126;2022-12-07T15:59:23;8.13;;;6.20;;
5163;SDS011;2601;50.224;10.126;2022-12-07T16:01:50;10.10;;;4.80;;
5163;SDS011;2601;50.224;10.126;2022-12-07T16:04:16;5.40;;;4.90;;
5163;SDS011;2601;50.224;10.126;2022-12-07T16:06:41;6.23;;;5.03;;
5163;SDS011;2601;50.224;10.126;2022-12-07T16:09:07;9.33;;;6.30;;
5163;SDS011;2601;50.224;10.126;2022-12-07T16:11:33;11.67;;;8.40;;
5163;SDS011;2601;50.224;10.126;2022-12-07T16:13:59;23.03;;;10.10;;
5163;SDS011;2601;50.224;10.126;2022-12-07T16:16:25;14.77;;;9.47;;
5163;SDS011;2601;50.224;10.126;2022-12-07T16:18:52;22.33;;;12.27;;
5163;SDS011;2601;50.224;10.126;2022-12-07T16:21:18;20.83;;;11.07;;
5163;SDS011;2601;50.224;10.126;2022-12-07T16:23:44;19.90;;;11.57;;
5163;SDS011;2601;50.224;10.126;2022-12-07T16:26:14;35.80;;;14.00;;
5163;SDS011;2601;50.224;10.126;2022-12-07T16:28:41;50.40;;;22.37;;
5163;SDS011;2601;50.224;10.126;2022-12-07T16:31:10;35.53;;;19.07;;
5163;SDS011;2601;50.224;10.126;2022-12-07T16:33:38;26.70;;;16.17;;
5163;SDS011;2601;50.224;10.126;2022-12-07T16:36:05;20.20;;;11.87;;
5163;SDS011;2601;50.224;10.126;2022-12-07T16:38:32;9.50;;;7.03;;
5163;SDS011;2601;50.224;10.126;2022-12-07T16:40:59;16.80;;;11.70;;
5163;SDS011;2601;50.224;10.126;2022-12-07T16:43:24;12.90;;;8.53;;
5163;SDS011;2601;50.224;10.126;2022-12-07T16:45:50;10.70;;;6.70;;
5163;SDS011;2601;50.224;10.126;2022-12-07T16:48:16;15.80;;;7.70;;
5163;SDS011;2601;50.224;10.126;2022-12-07T16:50:43;13.37;;;8.13;;
5163;SDS011;2601;50.224;10.126;2022-12-07T16:53:10;15.20;;;8.30;;
5163;SDS011;2601;50.224;10.126;2022-12-07T16:55:46;13.13;;;10.00;;
5163;SDS011;2601;50.224;10.126;2022-12-07T16:58:14;12.30;;;7.87;;
5163;SDS011;2601;50.224;10.126;2022-12-07T17:00:41;22.33;;;9.87;;
5163;SDS011;2601;50.224;10.126;2022-12-07T17:03:07;30.07;;;14.07;;
5163;SDS011;2601;50.224;10.126;2022-12-07T17:05:36;37.53;;;19.50;;
5163;SDS011;2601;50.224;10.126;2022-12-07T17:08:03;27.97;;;14.43;;
5163;SDS011;2601;50.224;10.126;2022-12-07T17:10:29;20.60;;;11.60;;
5163;SDS011;2601;50.224;10.126;2022-12-07T17:12:55;34.27;;;13.33;;
5163;SDS011;2601;50.224;10.126;2022-12-07T17:15:20;24.77;;;11.50;;
5163;SDS011;2601;50.224;10.126;2022-12-07T17:17:50;24.70;;;12.10;;
5163;SDS011;2601;50.224;10.126;2022-12-07T17:20:21;21.87;;;11.33;;
5163;SDS011;2601;50.224;10.126;2022-12-07T17:22:48;21.20;;;10.40;;
5163;SDS011;2601;50.224;10.126;2022-12-07T17:25:15;19.77;;;10.80;;
5163;SDS011;2601;50.224;10.126;2022-12-07T17:27:41;16.17;;;8.53;;
5163;SDS011;2601;50.224;10.126;2022-12-07T17:30:07;14.20;;;10.43;;
5163;SDS011;2601;50.224;10.126;2022-12-07T17:32:34;28.80;;;13.40;;
5163;SDS011;2601;50.224;10.126;2022-12-07T17:34:59;66.07;;;28.50;;
5163;SDS011;2601;50.224;10.126;2022-12-07T17:37:26;64.83;;;27.17;;
5163;SDS011;2601;50.224;10.126;2022-12-07T17:39:52;41.17;;;20.30;;
5163;SDS011;2601;50.224;10.126;2022-12-07T17:42:23;28.37;;;16.37;;
5163;SDS011;2601;50.224;10.126;2022-12-07T17:45:02;18.73;;;12.67;;
5163;SDS011;2601;50.224;10.126;2022-12-07T17:47:29;24.60;;;12.10;;
5163;SDS011;2601;50.224;10.126;2022-12-07T17:49:55;17.10;;;10.20;;
5163;SDS011;2601;50.224;10.126;2022-12-07T17:52:21;13.03;;;7.67;;
5163;SDS011;2601;50.224;10.126;2022-12-07T17:55:05;20.50;;;9.77;;
5163;SDS011;2601;50.224;10.126;2022-12-07T17:57:31;18.10;;;9.63;;
5163;SDS011;2601;50.224;10.126;2022-12-07T17:59:57;12.17;;;6.33;;
5163;SDS011;2601;50.224;10.126;2022-12-07T18:02:23;9.47;;;7.20;;
5163;SDS011;2601;50.224;10.126;2022-12-07T18:04:49;11.20;;;7.83;;
5163;SDS011;2601;50.224;10.126;2022-12-07T18:07:15;11.50;;;6.73;;
5163;SDS011;2601;50.224;10.126;2022-12-07T18:09:40;14.87;;;8.30;;
5163;SDS011;2601;50.224;10.126;2022-12-07T18:12:06;13.17;;;8.10;;
5163;SDS011;2601;50.224;10.126;2022-12-07T18:14:33;16.20;;;9.83;;
5163;SDS011;2601;50.224;10.126;2022-12-07T18:16:59;11.87;;;9.03;;
5163;SDS011;2601;50.224;10.126;2022-12-07T18:19:24;12.37;;;8.33;;
5163;SDS011;2601;50.224;10.126;2022-12-07T18:21:50;10.70;;;6.50;;
5163;SDS011;2601;50.224;10.126;2022-12-07T18:24:17;12.73;;;9.73;;
5163;SDS011;2601;50.224;10.126;2022-12-07T18:26:44;15.10;;;9.90;;
5163;SDS011;2601;50.224;10.126;2022-12-07T18:29:12;17.87;;;9.63;;
5163;SDS011;2601;50.224;10.126;2022-12-07T18:31:40;37.70;;;17.83;;
5163;SDS011;2601;50.224;10.126;2022-12-07T18:34:07;24.13;;;12.00;;
5163;SDS011;2601;50.224;10.126;2022-12-07T18:36:38;20.83;;;9.67;;
5163;SDS011;2601;50.224;10.126;2022-12-07T18:39:10;14.40;;;7.60;;
5163;SDS011;2601;50.224;10.126;2022-12-07T18:41:37;7.60;;;5.30;;
5163;SDS011;2601;50.224;10.126;2022-12-07T18:44:04;5.33;;;4.73;;
5163;SDS011;2601;50.224;10.126;2022-12-07T18:46:30;7.67;;;3.60;;
5163;SDS011;2601;50.224;10.126;2022-12-07T18:48:57;9.90;;;4.80;;
5163;SDS011;2601;50.224;10.126;2022-12-07T18:51:22;9.53;;;5.10;;
5163;SDS011;2601;50.224;10.126;2022-12-07T18:53:49;8.13;;;5.50;;
5163;SDS011;2601;50.224;10.126;2022-12-07T18:56:22;10.70;;;6.10;;
5163;SDS011;2601;50.224;10.126;2022-12-07T18:58:49;14.13;;;9.17;;
5163;SDS011;2601;50.224;10.126;2022-12-07T19:01:35;94.03;;;45.90;;
5163;SDS011;2601;50.224;10.126;2022-12-07T19:04:02;240.80;;;122.67;;
5163;SDS011;2601;50.224;10.126;2022-12-07T19:06:28;214.63;;;122.70;;
5163;SDS011;2601;50.224;10.126;2022-12-07T19:08:54;58.40;;;33.63;;
5163;SDS011;2601;50.224;10.126;2022-12-07T19:11:21;161.77;;;110.00;;
5163;SDS011;2601;50.224;10.126;2022-12-07T19:14:07;33.00;;;20.60;;
5163;SDS011;2601;50.224;10.126;2022-12-07T19:16:33;18.03;;;12.30;;
5163;SDS011;2601;50.224;10.126;2022-12-07T19:18:59;16.40;;;13.50;;
5163;SDS011;2601;50.224;10.126;2022-12-07T19:21:24;9.30;;;8.20;;
5163;SDS011;2601;50.224;10.126;2022-12-07T19:23:51;8.57;;;7.03;;
5163;SDS011;2601;50.224;10.126;2022-12-07T19:26:17;17.30;;;10.87;;
5163;SDS011;2601;50.224;10.126;2022-12-07T19:28:42;14.87;;;10.33;;
5163;SDS011;2601;50.224;10.126;2022-12-07T19:31:08;24.00;;;11.73;;
5163;SDS011;2601;50.224;10.126;2022-12-07T19:33:38;19.43;;;12.43;;
5163;SDS011;2601;50.224;10.126;2022-12-07T19:36:04;17.00;;;13.60;;
5163;SDS011;2601;50.224;10.126;2022-12-07T19:38:30;19.43;;;13.00;;
5163;SDS011;2601;50.224;10.126;2022-12-07T19:41:06;18.87;;;11.23;;
5163;SDS011;2601;50.224;10.126;2022-12-07T19:43:57;15.23;;;10.60;;
5163;SDS011;2601;50.224;10.126;2022-12-07T19:46:27;17.90;;;11.40;;
5163;SDS011;2601;50.224;10.126;2022-12-07T19:48:53;16.10;;;11.27;;
5163;SDS011;2601;50.224;10.126;2022-12-07T19:51:20;29.40;;;15.73;;
5163;SDS011;2601;50.224;10.126;2022-12-07T19:53:45;21.47;;;11.80;;
5163;SDS011;2601;50.224;10.126;2022-12-07T19:56:15;23.83;;;12.70;;
5163;SDS011;2601;50.224;10.126;2022-12-07T19:58:41;82.40;;;33.60;;
5163;SDS011;2601;50.224;10.126;2022-12-07T20:01:07;65.93;;;22.00;;
5163;SDS011;2601;50.224;10.126;2022-12-07T20:03:34;134.53;;;56.03;;
5163;SDS011;2601;50.224;10.126;2022-12-07T20:05:59;62.93;;;27.93;;
5163;SDS011;2601;50.224;10.126;2022-12-07T20:08:25;80.63;;;38.37;;
5163;SDS011;2601;50.224;10.126;2022-12-07T20:10:51;57.90;;;28.70;;
5163;SDS011;2601;50.224;10.126;2022-12-07T20:13:18;42.70;;;18.67;;
5163;SDS011;2601;50.224;10.126;2022-12-07T20:15:56;17.17;;;11.63;;
5163;SDS011;2601;50.224;10.126;2022-12-07T20:18:26;19.70;;;11.30;;
5163;SDS011;2601;50.224;10.126;2022-12-07T20:20:55;23.33;;;11.87;;
5163;SDS011;2601;50.224;10.126;2022-12-07T20:23:23;15.57;;;8.60;;
5163;SDS011;2601;50.224;10.126;2022-12-07T20:25:52;16.90;;;10.43;;
5163;SDS011;2601;50.224;10.126;2022-12-07T20:28:19;20.50;;;12.60;;
5163;SDS011;2601;50.224;10.126;2022-12-07T20:30:48;20.87;;;13.07;;
5163;SDS011;2601;50.224;10.126;2022-12-07T20:33:18;21.93;;;11.37;;
5163;SDS011;2601;50.224;10.126;2022-12-07T20:35:44;17.03;;;10.03;;
5163;SDS011;2601;50.224;10.126;2022-12-07T20:38:11;12.30;;;7.17;;
5163;SDS011;2601;50.224;10.126;2022-12-07T20:40:38;18.37;;;10.90;;
5163;SDS011;2601;50.224;10.126;2022-12-07T20:43:10;19.07;;;10.90;;
